Portada
METAR-TAF:

METAR-TAF

Aeropuertos :

Aeropuerto de Melilla

Melilla, España

latitud: 35-17N, longitud: 002-57W, altitud: 47 m

Observación

El informe se hizo hace 22 minutos, a las 00:30 UTC
Viento 8 kt del sur-suroeste, variando entre sur-sureste y oeste-suroeste
Temperatura 17°C
Humedad 48%
Presión 1002 hPa
Visibilidad 10 km o más
sin nubes por debajo de 1500 m y sin presencia de cumulonimbus.

METAR: GEML 190030Z AUTO 21008KT 160V250 CAVOK 17/06 Q1002

Hora: 01:52 (00:52 UTC)

Pronóstico

El informe se hizo hace 4 horas y 52 minutos, a las 20:00 UTC
Pronóstico válido del 18 a las 21 UTC al 19 a las 21 UTC
Viento 8 kt del oeste-suroeste
Visibilidad 10 km o más
Escasas nubes a una altura de 4500 ft
Probabilidad 40% :
Temporalmente
del 19 a las 12 UTC al 19 a las 18 UTC
Viento 15 kt del oeste con ráfagas de 25 kt

TAF: GEML 182000Z 1821/1921 25008KT 9999 FEW045 TX19/1913Z TN15/1906Z PROB40 TEMPO 1912/1918 28015G25KT

Observaciones y pronósticos meteorológicos de más de 4000 aeropuertos (mensajes METAR y TAF).

Los puntos amarillos y rojos representan las estaciones disponibles.

Ponga el ratón en el punto deseado para ver el nombre de la estación.

Haga clic para ver las observaciones y los pronósticos meteorológicos.

Para cambiar el mapa : haga clic en los botones verdes con una cruz de color negro para hacer un zoom, en el botón verde con un guión para alejar o en las flechas verdes para mapas adyacentes.


METAR-TAF: